PILOTS ONLINE: 283    ATC ONLINE: 31

KCDC

Cedar City Regional Airport

Location

IATA CDC
City Cedar City
Country  United States
Latitude 37° 42' 3" N
Longitude 113° 5' 56" W
Elevation 5622 ft
Type Medium Airport

Map

Weather

METAR
2014/10/25 03:53
KCDC 250353Z AUTO 23008KT 10SM CLR 16/M01 A3021 RMK AO2 SLP176 T01611011 TSNO
TAF
2014/10/24 18:39
TAF KCDC 241734Z 2418/2518 20009KT P6SM SKC 
     FM241900 21013G20KT P6SM SKC 
     FM250200 20009KT P6SM SKC

Runways

02/20 8653 ft / 150 ft
08/26 4822 ft / 60 ft

Outbound flights

Callsign Flying to Pilot ATD/STD ETA Aircraft

Inbound flights

Callsign Flying from Pilot ATD ETA Aircraft